sensor_id;sensor_type;location;lat;lon;timestamp;P1;durP1;ratioP1;P2;durP2;ratioP2
57395;SDS011;43222;52.912;6.940;2023-12-20T00:00:02;11.35;;;1.75;;
57395;SDS011;43222;52.912;6.940;2023-12-20T00:02:29;17.65;;;2.15;;
57395;SDS011;43222;52.912;6.940;2023-12-20T00:04:55;17.30;;;2.90;;
57395;SDS011;43222;52.912;6.940;2023-12-20T00:07:21;21.80;;;2.58;;
57395;SDS011;43222;52.912;6.940;2023-12-20T00:09:47;16.80;;;2.13;;
57395;SDS011;43222;52.912;6.940;2023-12-20T00:12:13;17.20;;;2.92;;
57395;SDS011;43222;52.912;6.940;2023-12-20T00:14:39;15.73;;;1.80;;
57395;SDS011;43222;52.912;6.940;2023-12-20T00:17:05;12.35;;;2.03;;
57395;SDS011;43222;52.912;6.940;2023-12-20T00:19:31;16.17;;;2.55;;
57395;SDS011;43222;52.912;6.940;2023-12-20T00:21:57;20.67;;;2.30;;
57395;SDS011;43222;52.912;6.940;2023-12-20T00:24:24;14.85;;;2.30;;
57395;SDS011;43222;52.912;6.940;2023-12-20T00:26:50;16.63;;;2.05;;
57395;SDS011;43222;52.912;6.940;2023-12-20T00:29:16;16.17;;;2.20;;
57395;SDS011;43222;52.912;6.940;2023-12-20T00:31:43;18.95;;;2.80;;
57395;SDS011;43222;52.912;6.940;2023-12-20T00:34:09;18.85;;;2.00;;
57395;SDS011;43222;52.912;6.940;2023-12-20T00:36:35;14.35;;;2.05;;
57395;SDS011;43222;52.912;6.940;2023-12-20T00:39:01;19.65;;;2.30;;
57395;SDS011;43222;52.912;6.940;2023-12-20T00:41:27;17.60;;;2.30;;
57395;SDS011;43222;52.912;6.940;2023-12-20T00:43:53;17.67;;;2.20;;
57395;SDS011;43222;52.912;6.940;2023-12-20T00:46:19;22.95;;;2.28;;
57395;SDS011;43222;52.912;6.940;2023-12-20T00:48:45;16.83;;;2.08;;
57395;SDS011;43222;52.912;6.940;2023-12-20T00:51:11;14.02;;;2.15;;
57395;SDS011;43222;52.912;6.940;2023-12-20T00:53:38;11.75;;;2.00;;
57395;SDS011;43222;52.912;6.940;2023-12-20T00:56:04;18.02;;;2.97;;
57395;SDS011;43222;52.912;6.940;2023-12-20T00:58:30;13.68;;;2.00;;
57395;SDS011;43222;52.912;6.940;2023-12-20T01:00:56;18.90;;;2.53;;
57395;SDS011;43222;52.912;6.940;2023-12-20T01:03:23;14.25;;;2.55;;
57395;SDS011;43222;52.912;6.940;2023-12-20T01:05:49;15.00;;;2.03;;
57395;SDS011;43222;52.912;6.940;2023-12-20T01:08:15;20.60;;;2.60;;
57395;SDS011;43222;52.912;6.940;2023-12-20T01:10:41;14.13;;;2.08;;
57395;SDS011;43222;52.912;6.940;2023-12-20T01:13:07;17.65;;;2.28;;
57395;SDS011;43222;52.912;6.940;2023-12-20T01:15:35;16.42;;;2.38;;
57395;SDS011;43222;52.912;6.940;2023-12-20T01:18:01;14.27;;;2.05;;
57395;SDS011;43222;52.912;6.940;2023-12-20T01:20:27;13.00;;;1.80;;
57395;SDS011;43222;52.912;6.940;2023-12-20T01:22:53;15.43;;;2.03;;
57395;SDS011;43222;52.912;6.940;2023-12-20T01:25:19;13.10;;;2.10;;
57395;SDS011;43222;52.912;6.940;2023-12-20T01:27:45;19.92;;;2.60;;
57395;SDS011;43222;52.912;6.940;2023-12-20T01:30:11;14.45;;;2.10;;
57395;SDS011;43222;52.912;6.940;2023-12-20T01:32:37;15.32;;;2.08;;
57395;SDS011;43222;52.912;6.940;2023-12-20T01:35:04;18.00;;;2.60;;
57395;SDS011;43222;52.912;6.940;2023-12-20T01:37:30;19.50;;;2.38;;
57395;SDS011;43222;52.912;6.940;2023-12-20T01:39:56;20.23;;;2.20;;
57395;SDS011;43222;52.912;6.940;2023-12-20T01:42:22;19.23;;;2.45;;
57395;SDS011;43222;52.912;6.940;2023-12-20T01:44:48;16.52;;;2.40;;
57395;SDS011;43222;52.912;6.940;2023-12-20T01:47:14;22.80;;;2.83;;
57395;SDS011;43222;52.912;6.940;2023-12-20T01:49:40;16.98;;;2.60;;
57395;SDS011;43222;52.912;6.940;2023-12-20T01:52:06;24.40;;;2.88;;
57395;SDS011;43222;52.912;6.940;2023-12-20T01:54:33;22.55;;;2.95;;
57395;SDS011;43222;52.912;6.940;2023-12-20T01:57:00;25.27;;;3.17;;
57395;SDS011;43222;52.912;6.940;2023-12-20T01:59:26;19.98;;;2.60;;
57395;SDS011;43222;52.912;6.940;2023-12-20T02:01:52;16.45;;;2.40;;
57395;SDS011;43222;52.912;6.940;2023-12-20T02:04:18;20.08;;;3.60;;
57395;SDS011;43222;52.912;6.940;2023-12-20T02:06:44;22.67;;;3.15;;
57395;SDS011;43222;52.912;6.940;2023-12-20T02:09:12;17.73;;;2.65;;
57395;SDS011;43222;52.912;6.940;2023-12-20T02:11:38;20.00;;;2.70;;
57395;SDS011;43222;52.912;6.940;2023-12-20T02:14:04;20.25;;;2.65;;
57395;SDS011;43222;52.912;6.940;2023-12-20T02:16:30;19.38;;;3.33;;
57395;SDS011;43222;52.912;6.940;2023-12-20T02:18:56;17.58;;;2.75;;
57395;SDS011;43222;52.912;6.940;2023-12-20T02:21:31;17.40;;;2.67;;
57395;SDS011;43222;52.912;6.940;2023-12-20T02:23:58;21.50;;;3.17;;
57395;SDS011;43222;52.912;6.940;2023-12-20T02:26:24;20.27;;;2.70;;
57395;SDS011;43222;52.912;6.940;2023-12-20T02:28:51;19.88;;;2.97;;
57395;SDS011;43222;52.912;6.940;2023-12-20T02:31:17;20.27;;;2.83;;
57395;SDS011;43222;52.912;6.940;2023-12-20T02:33:46;19.83;;;2.90;;
57395;SDS011;43222;52.912;6.940;2023-12-20T02:36:12;21.67;;;2.97;;
57395;SDS011;43222;52.912;6.940;2023-12-20T02:38:38;18.05;;;2.53;;
57395;SDS011;43222;52.912;6.940;2023-12-20T02:41:04;24.50;;;3.38;;
57395;SDS011;43222;52.912;6.940;2023-12-20T02:43:30;22.73;;;2.92;;
57395;SDS011;43222;52.912;6.940;2023-12-20T02:45:56;20.08;;;2.80;;
57395;SDS011;43222;52.912;6.940;2023-12-20T02:48:22;17.20;;;2.97;;
57395;SDS011;43222;52.912;6.940;2023-12-20T02:50:48;17.25;;;2.42;;
57395;SDS011;43222;52.912;6.940;2023-12-20T02:53:14;15.85;;;2.92;;
57395;SDS011;43222;52.912;6.940;2023-12-20T02:55:40;19.48;;;2.60;;
57395;SDS011;43222;52.912;6.940;2023-12-20T02:58:06;16.02;;;2.55;;
57395;SDS011;43222;52.912;6.940;2023-12-20T03:00:32;20.80;;;2.50;;
57395;SDS011;43222;52.912;6.940;2023-12-20T03:02:59;18.60;;;2.45;;
57395;SDS011;43222;52.912;6.940;2023-12-20T03:05:25;20.42;;;2.75;;
57395;SDS011;43222;52.912;6.940;2023-12-20T03:07:51;20.35;;;2.80;;
57395;SDS011;43222;52.912;6.940;2023-12-20T03:10:18;20.45;;;2.95;;
57395;SDS011;43222;52.912;6.940;2023-12-20T03:12:44;20.85;;;3.13;;
57395;SDS011;43222;52.912;6.940;2023-12-20T03:15:10;20.48;;;3.28;;
57395;SDS011;43222;52.912;6.940;2023-12-20T03:17:36;23.48;;;3.33;;
57395;SDS011;43222;52.912;6.940;2023-12-20T03:20:02;26.30;;;3.58;;
57395;SDS011;43222;52.912;6.940;2023-12-20T03:22:28;21.35;;;3.13;;
57395;SDS011;43222;52.912;6.940;2023-12-20T03:24:54;21.42;;;3.13;;
57395;SDS011;43222;52.912;6.940;2023-12-20T03:27:20;18.75;;;3.38;;
57395;SDS011;43222;52.912;6.940;2023-12-20T03:29:46;24.25;;;3.22;;
57395;SDS011;43222;52.912;6.940;2023-12-20T03:32:13;20.02;;;3.70;;
57395;SDS011;43222;52.912;6.940;2023-12-20T03:34:39;20.23;;;3.50;;
57395;SDS011;43222;52.912;6.940;2023-12-20T03:37:05;22.17;;;3.10;;
57395;SDS011;43222;52.912;6.940;2023-12-20T03:39:31;25.20;;;3.67;;
57395;SDS011;43222;52.912;6.940;2023-12-20T03:41:57;30.77;;;4.03;;
57395;SDS011;43222;52.912;6.940;2023-12-20T03:44:23;26.95;;;3.45;;
57395;SDS011;43222;52.912;6.940;2023-12-20T03:46:49;19.42;;;3.25;;
57395;SDS011;43222;52.912;6.940;2023-12-20T03:49:15;25.23;;;3.63;;
57395;SDS011;43222;52.912;6.940;2023-12-20T03:51:41;31.10;;;4.10;;
57395;SDS011;43222;52.912;6.940;2023-12-20T03:54:08;28.75;;;3.33;;
57395;SDS011;43222;52.912;6.940;2023-12-20T03:56:34;29.10;;;3.70;;
57395;SDS011;43222;52.912;6.940;2023-12-20T03:59:00;25.67;;;3.58;;
57395;SDS011;43222;52.912;6.940;2023-12-20T04:01:26;26.30;;;3.33;;
57395;SDS011;43222;52.912;6.940;2023-12-20T04:03:52;27.63;;;4.70;;
57395;SDS011;43222;52.912;6.940;2023-12-20T04:06:18;21.05;;;4.03;;
57395;SDS011;43222;52.912;6.940;2023-12-20T04:08:44;23.75;;;3.88;;
57395;SDS011;43222;52.912;6.940;2023-12-20T04:11:10;25.40;;;4.22;;
57395;SDS011;43222;52.912;6.940;2023-12-20T04:13:36;24.77;;;4.30;;
57395;SDS011;43222;52.912;6.940;2023-12-20T04:16:02;33.88;;;3.95;;
57395;SDS011;43222;52.912;6.940;2023-12-20T04:18:28;28.27;;;3.85;;
57395;SDS011;43222;52.912;6.940;2023-12-20T04:20:57;25.08;;;3.83;;
57395;SDS011;43222;52.912;6.940;2023-12-20T04:23:23;26.45;;;3.85;;
57395;SDS011;43222;52.912;6.940;2023-12-20T04:25:49;28.83;;;4.43;;
57395;SDS011;43222;52.912;6.940;2023-12-20T04:28:15;29.33;;;4.45;;
57395;SDS011;43222;52.912;6.940;2023-12-20T04:30:41;35.90;;;4.88;;
57395;SDS011;43222;52.912;6.940;2023-12-20T04:33:08;27.42;;;3.85;;
57395;SDS011;43222;52.912;6.940;2023-12-20T04:35:34;27.45;;;3.60;;
57395;SDS011;43222;52.912;6.940;2023-12-20T04:38:00;27.88;;;3.95;;
57395;SDS011;43222;52.912;6.940;2023-12-20T04:40:26;31.88;;;4.35;;
57395;SDS011;43222;52.912;6.940;2023-12-20T04:42:52;33.40;;;3.80;;
57395;SDS011;43222;52.912;6.940;2023-12-20T04:45:18;20.60;;;3.60;;
57395;SDS011;43222;52.912;6.940;2023-12-20T04:47:44;26.67;;;3.95;;
57395;SDS011;43222;52.912;6.940;2023-12-20T04:50:12;28.73;;;4.72;;
57395;SDS011;43222;52.912;6.940;2023-12-20T04:52:38;29.02;;;5.25;;
57395;SDS011;43222;52.912;6.940;2023-12-20T04:55:04;29.92;;;5.05;;
57395;SDS011;43222;52.912;6.940;2023-12-20T04:57:30;28.42;;;4.47;;
57395;SDS011;43222;52.912;6.940;2023-12-20T04:59:57;37.70;;;4.47;;
57395;SDS011;43222;52.912;6.940;2023-12-20T05:02:23;27.27;;;4.80;;
57395;SDS011;43222;52.912;6.940;2023-12-20T05:04:49;32.53;;;4.22;;
57395;SDS011;43222;52.912;6.940;2023-12-20T05:07:15;32.47;;;4.45;;
57395;SDS011;43222;52.912;6.940;2023-12-20T05:09:41;32.13;;;4.97;;
57395;SDS011;43222;52.912;6.940;2023-12-20T05:12:07;30.98;;;4.22;;
57395;SDS011;43222;52.912;6.940;2023-12-20T05:14:33;28.25;;;4.03;;
57395;SDS011;43222;52.912;6.940;2023-12-20T05:16:59;39.10;;;5.22;;
57395;SDS011;43222;52.912;6.940;2023-12-20T05:19:25;32.50;;;5.00;;
57395;SDS011;43222;52.912;6.940;2023-12-20T05:21:52;31.45;;;4.22;;
57395;SDS011;43222;52.912;6.940;2023-12-20T05:24:18;28.30;;;4.18;;
57395;SDS011;43222;52.912;6.940;2023-12-20T05:26:44;32.45;;;4.90;;
57395;SDS011;43222;52.912;6.940;2023-12-20T05:29:10;35.67;;;5.40;;
57395;SDS011;43222;52.912;6.940;2023-12-20T05:31:36;23.95;;;4.20;;
57395;SDS011;43222;52.912;6.940;2023-12-20T05:34:02;30.80;;;4.95;;
57395;SDS011;43222;52.912;6.940;2023-12-20T05:36:28;28.05;;;4.47;;
57395;SDS011;43222;52.912;6.940;2023-12-20T05:38:54;30.60;;;5.10;;
57395;SDS011;43222;52.912;6.940;2023-12-20T05:41:20;30.80;;;4.60;;
57395;SDS011;43222;52.912;6.940;2023-12-20T05:43:46;27.38;;;5.68;;
57395;SDS011;43222;52.912;6.940;2023-12-20T05:46:12;23.98;;;4.00;;
57395;SDS011;43222;52.912;6.940;2023-12-20T05:48:38;26.08;;;4.88;;
57395;SDS011;43222;52.912;6.940;2023-12-20T05:51:04;33.08;;;4.68;;
57395;SDS011;43222;52.912;6.940;2023-12-20T05:53:30;37.50;;;5.25;;
57395;SDS011;43222;52.912;6.940;2023-12-20T05:55:57;35.22;;;5.05;;
57395;SDS011;43222;52.912;6.940;2023-12-20T05:58:23;30.85;;;4.63;;
57395;SDS011;43222;52.912;6.940;2023-12-20T06:00:49;27.65;;;5.00;;
57395;SDS011;43222;52.912;6.940;2023-12-20T06:03:15;29.67;;;4.35;;
57395;SDS011;43222;52.912;6.940;2023-12-20T06:05:41;33.72;;;4.68;;
57395;SDS011;43222;52.912;6.940;2023-12-20T06:08:07;26.00;;;4.43;;
57395;SDS011;43222;52.912;6.940;2023-12-20T06:10:33;27.27;;;4.10;;
57395;SDS011;43222;52.912;6.940;2023-12-20T06:12:59;24.95;;;5.13;;
57395;SDS011;43222;52.912;6.940;2023-12-20T06:15:25;28.75;;;3.90;;
57395;SDS011;43222;52.912;6.940;2023-12-20T06:17:52;29.80;;;5.15;;
57395;SDS011;43222;52.912;6.940;2023-12-20T06:20:18;24.08;;;4.70;;
57395;SDS011;43222;52.912;6.940;2023-12-20T06:22:44;25.95;;;4.32;;
57395;SDS011;43222;52.912;6.940;2023-12-20T06:25:10;26.42;;;4.75;;
57395;SDS011;43222;52.912;6.940;2023-12-20T06:27:36;29.00;;;4.20;;
57395;SDS011;43222;52.912;6.940;2023-12-20T06:30:02;28.65;;;4.05;;
57395;SDS011;43222;52.912;6.940;2023-12-20T06:32:28;28.50;;;4.10;;
57395;SDS011;43222;52.912;6.940;2023-12-20T06:34:54;31.13;;;4.63;;
57395;SDS011;43222;52.912;6.940;2023-12-20T06:37:20;27.33;;;4.18;;
57395;SDS011;43222;52.912;6.940;2023-12-20T06:39:46;29.23;;;4.32;;
57395;SDS011;43222;52.912;6.940;2023-12-20T06:42:13;35.05;;;5.20;;
57395;SDS011;43222;52.912;6.940;2023-12-20T06:44:39;28.42;;;4.07;;
57395;SDS011;43222;52.912;6.940;2023-12-20T06:47:05;30.20;;;5.03;;
57395;SDS011;43222;52.912;6.940;2023-12-20T06:49:31;28.67;;;4.78;;
57395;SDS011;43222;52.912;6.940;2023-12-20T06:51:57;27.92;;;4.18;;
57395;SDS011;43222;52.912;6.940;2023-12-20T06:54:23;28.95;;;4.10;;
57395;SDS011;43222;52.912;6.940;2023-12-20T06:56:49;28.73;;;5.10;;
57395;SDS011;43222;52.912;6.940;2023-12-20T06:59:15;26.38;;;4.32;;
57395;SDS011;43222;52.912;6.940;2023-12-20T07:01:41;30.60;;;4.32;;
57395;SDS011;43222;52.912;6.940;2023-12-20T07:04:08;30.05;;;4.50;;
57395;SDS011;43222;52.912;6.940;2023-12-20T07:06:34;28.50;;;4.38;;
57395;SDS011;43222;52.912;6.940;2023-12-20T07:09:00;26.45;;;4.07;;
57395;SDS011;43222;52.912;6.940;2023-12-20T07:11:26;28.33;;;4.40;;
57395;SDS011;43222;52.912;6.940;2023-12-20T07:13:52;29.88;;;4.25;;
57395;SDS011;43222;52.912;6.940;2023-12-20T07:16:18;32.10;;;5.07;;
57395;SDS011;43222;52.912;6.940;2023-12-20T07:18:44;31.45;;;5.32;;
57395;SDS011;43222;52.912;6.940;2023-12-20T07:21:10;28.95;;;4.82;;
57395;SDS011;43222;52.912;6.940;2023-12-20T07:23:36;30.80;;;4.30;;
57395;SDS011;43222;52.912;6.940;2023-12-20T07:26:02;24.40;;;4.15;;
57395;SDS011;43222;52.912;6.940;2023-12-20T07:28:29;30.80;;;4.03;;
57395;SDS011;43222;52.912;6.940;2023-12-20T07:30:55;31.60;;;4.65;;
57395;SDS011;43222;52.912;6.940;2023-12-20T07:33:21;27.42;;;4.22;;
57395;SDS011;43222;52.912;6.940;2023-12-20T07:35:47;31.58;;;5.38;;
57395;SDS011;43222;52.912;6.940;2023-12-20T07:38:13;26.17;;;4.30;;
57395;SDS011;43222;52.912;6.940;2023-12-20T07:40:39;32.97;;;4.32;;
57395;SDS011;43222;52.912;6.940;2023-12-20T07:43:05;32.03;;;4.30;;
57395;SDS011;43222;52.912;6.940;2023-12-20T07:45:31;32.92;;;4.93;;
57395;SDS011;43222;52.912;6.940;2023-12-20T07:47:57;29.15;;;4.43;;
57395;SDS011;43222;52.912;6.940;2023-12-20T07:50:23;26.98;;;4.43;;
57395;SDS011;43222;52.912;6.940;2023-12-20T07:52:50;34.95;;;4.53;;
57395;SDS011;43222;52.912;6.940;2023-12-20T07:55:16;30.83;;;4.85;;
57395;SDS011;43222;52.912;6.940;2023-12-20T07:57:42;31.00;;;4.55;;
57395;SDS011;43222;52.912;6.940;2023-12-20T08:00:08;35.53;;;4.30;;
57395;SDS011;43222;52.912;6.940;2023-12-20T08:02:34;30.35;;;5.22;;
57395;SDS011;43222;52.912;6.940;2023-12-20T08:05:00;26.42;;;4.80;;
57395;SDS011;43222;52.912;6.940;2023-12-20T08:07:26;32.20;;;5.25;;
57395;SDS011;43222;52.912;6.940;2023-12-20T08:09:52;27.17;;;4.03;;
57395;SDS011;43222;52.912;6.940;2023-12-20T08:12:19;31.65;;;4.72;;
57395;SDS011;43222;52.912;6.940;2023-12-20T08:14:46;30.35;;;5.40;;
57395;SDS011;43222;52.912;6.940;2023-12-20T08:17:12;28.45;;;4.90;;
57395;SDS011;43222;52.912;6.940;2023-12-20T08:19:38;31.42;;;5.32;;
57395;SDS011;43222;52.912;6.940;2023-12-20T08:22:04;31.27;;;4.90;;
57395;SDS011;43222;52.912;6.940;2023-12-20T08:24:30;30.45;;;4.40;;
57395;SDS011;43222;52.912;6.940;2023-12-20T08:26:56;29.35;;;4.70;;
57395;SDS011;43222;52.912;6.940;2023-12-20T08:29:22;28.60;;;4.75;;
57395;SDS011;43222;52.912;6.940;2023-12-20T08:31:51;27.67;;;4.50;;
57395;SDS011;43222;52.912;6.940;2023-12-20T08:34:18;29.35;;;4.82;;
57395;SDS011;43222;52.912;6.940;2023-12-20T08:36:44;25.27;;;4.53;;
57395;SDS011;43222;52.912;6.940;2023-12-20T08:39:10;27.30;;;4.82;;
57395;SDS011;43222;52.912;6.940;2023-12-20T08:41:36;23.63;;;3.92;;
57395;SDS011;43222;52.912;6.940;2023-12-20T08:44:02;23.38;;;3.92;;
57395;SDS011;43222;52.912;6.940;2023-12-20T08:46:29;31.30;;;4.65;;
57395;SDS011;43222;52.912;6.940;2023-12-20T08:48:55;30.67;;;4.78;;
57395;SDS011;43222;52.912;6.940;2023-12-20T08:51:21;24.77;;;4.40;;
57395;SDS011;43222;52.912;6.940;2023-12-20T08:53:50;29.83;;;5.13;;
57395;SDS011;43222;52.912;6.940;2023-12-20T08:56:16;29.38;;;4.72;;
57395;SDS011;43222;52.912;6.940;2023-12-20T08:58:43;20.48;;;4.00;;
57395;SDS011;43222;52.912;6.940;2023-12-20T09:01:09;18.98;;;3.72;;
57395;SDS011;43222;52.912;6.940;2023-12-20T09:03:35;22.95;;;4.05;;
57395;SDS011;43222;52.912;6.940;2023-12-20T09:06:01;21.17;;;3.95;;
57395;SDS011;43222;52.912;6.940;2023-12-20T09:08:27;20.33;;;2.92;;
57395;SDS011;43222;52.912;6.940;2023-12-20T09:10:53;20.23;;;3.30;;
57395;SDS011;43222;52.912;6.940;2023-12-20T09:13:19;25.42;;;3.78;;
57395;SDS011;43222;52.912;6.940;2023-12-20T09:15:47;23.98;;;3.63;;
57395;SDS011;43222;52.912;6.940;2023-12-20T09:18:13;20.48;;;3.53;;
57395;SDS011;43222;52.912;6.940;2023-12-20T09:20:39;21.73;;;3.67;;
57395;SDS011;43222;52.912;6.940;2023-12-20T09:23:05;26.00;;;3.67;;
57395;SDS011;43222;52.912;6.940;2023-12-20T09:25:31;24.20;;;3.88;;
57395;SDS011;43222;52.912;6.940;2023-12-20T09:27:57;32.60;;;5.55;;
57395;SDS011;43222;52.912;6.940;2023-12-20T09:30:23;27.67;;;4.68;;
57395;SDS011;43222;52.912;6.940;2023-12-20T09:32:50;25.73;;;4.70;;
57395;SDS011;43222;52.912;6.940;2023-12-20T09:35:16;25.20;;;4.35;;
57395;SDS011;43222;52.912;6.940;2023-12-20T09:37:42;27.27;;;4.70;;
57395;SDS011;43222;52.912;6.940;2023-12-20T09:40:10;20.98;;;3.78;;
57395;SDS011;43222;52.912;6.940;2023-12-20T09:45:10;25.20;;;4.30;;
57395;SDS011;43222;52.912;6.940;2023-12-20T09:47:39;18.75;;;3.00;;
57395;SDS011;43222;52.912;6.940;2023-12-20T09:50:05;6.85;;;1.42;;
57395;SDS011;43222;52.912;6.940;2023-12-20T09:52:32;10.10;;;1.60;;
57395;SDS011;43222;52.912;6.940;2023-12-20T09:55:00;10.05;;;1.58;;
57395;SDS011;43222;52.912;6.940;2023-12-20T09:57:29;8.18;;;1.45;;
57395;SDS011;43222;52.912;6.940;2023-12-20T09:59:55;6.63;;;1.23;;
57395;SDS011;43222;52.912;6.940;2023-12-20T10:02:21;9.90;;;1.50;;
57395;SDS011;43222;52.912;6.940;2023-12-20T10:04:52;10.80;;;1.35;;
57395;SDS011;43222;52.912;6.940;2023-12-20T10:07:18;12.93;;;1.92;;
57395;SDS011;43222;52.912;6.940;2023-12-20T10:09:44;11.85;;;1.23;;
57395;SDS011;43222;52.912;6.940;2023-12-20T10:12:11;12.10;;;1.55;;
57395;SDS011;43222;52.912;6.940;2023-12-20T10:14:38;7.47;;;1.52;;
57395;SDS011;43222;52.912;6.940;2023-12-20T10:17:04;10.00;;;1.27;;
57395;SDS011;43222;52.912;6.940;2023-12-20T10:19:31;8.35;;;1.20;;
57395;SDS011;43222;52.912;6.940;2023-12-20T10:22:00;10.25;;;1.60;;
57395;SDS011;43222;52.912;6.940;2023-12-20T10:24:30;9.77;;;1.58;;
57395;SDS011;43222;52.912;6.940;2023-12-20T10:27:03;12.05;;;1.35;;
57395;SDS011;43222;52.912;6.940;2023-12-20T10:29:35;8.55;;;1.38;;
57395;SDS011;43222;52.912;6.940;2023-12-20T10:32:21;10.50;;;1.45;;
57395;SDS011;43222;52.912;6.940;2023-12-20T10:34:48;7.65;;;1.30;;
57395;SDS011;43222;52.912;6.940;2023-12-20T10:37:14;11.48;;;1.73;;
57395;SDS011;43222;52.912;6.940;2023-12-20T10:39:40;9.35;;;1.52;;
57395;SDS011;43222;52.912;6.940;2023-12-20T10:42:09;10.88;;;1.60;;
57395;SDS011;43222;52.912;6.940;2023-12-20T10:44:35;12.10;;;1.70;;
57395;SDS011;43222;52.912;6.940;2023-12-20T10:47:01;11.23;;;1.55;;
57395;SDS011;43222;52.912;6.940;2023-12-20T10:49:27;9.15;;;1.30;;
57395;SDS011;43222;52.912;6.940;2023-12-20T10:51:54;7.90;;;1.42;;
57395;SDS011;43222;52.912;6.940;2023-12-20T10:54:22;7.50;;;1.30;;
57395;SDS011;43222;52.912;6.940;2023-12-20T10:56:48;10.02;;;1.63;;
57395;SDS011;43222;52.912;6.940;2023-12-20T10:59:16;8.35;;;1.50;;
57395;SDS011;43222;52.912;6.940;2023-12-20T11:01:45;10.48;;;1.67;;
57395;SDS011;43222;52.912;6.940;2023-12-20T11:04:14;12.35;;;1.90;;
57395;SDS011;43222;52.912;6.940;2023-12-20T11:06:49;13.55;;;1.88;;
57395;SDS011;43222;52.912;6.940;2023-12-20T11:09:20;12.10;;;1.45;;
57395;SDS011;43222;52.912;6.940;2023-12-20T11:14:49;12.15;;;1.42;;
57395;SDS011;43222;52.912;6.940;2023-12-20T11:17:16;11.07;;;1.65;;
57395;SDS011;43222;52.912;6.940;2023-12-20T11:20:03;9.80;;;1.65;;
57395;SDS011;43222;52.912;6.940;2023-12-20T11:22:32;7.35;;;1.23;;
57395;SDS011;43222;52.912;6.940;2023-12-20T11:25:05;9.07;;;1.33;;
57395;SDS011;43222;52.912;6.940;2023-12-20T11:27:34;11.95;;;1.75;;
57395;SDS011;43222;52.912;6.940;2023-12-20T11:30:02;12.35;;;1.88;;
57395;SDS011;43222;52.912;6.940;2023-12-20T11:32:31;12.17;;;1.90;;
57395;SDS011;43222;52.912;6.940;2023-12-20T11:37:36;10.85;;;1.35;;
57395;SDS011;43222;52.912;6.940;2023-12-20T11:42:32;11.52;;;1.70;;
57395;SDS011;43222;52.912;6.940;2023-12-20T11:44:59;13.03;;;1.50;;
57395;SDS011;43222;52.912;6.940;2023-12-20T11:47:25;14.13;;;1.90;;
57395;SDS011;43222;52.912;6.940;2023-12-20T11:49:51;11.27;;;1.80;;
57395;SDS011;43222;52.912;6.940;2023-12-20T11:52:17;11.73;;;1.85;;
57395;SDS011;43222;52.912;6.940;2023-12-20T11:54:43;15.27;;;2.17;;
57395;SDS011;43222;52.912;6.940;2023-12-20T11:57:09;11.27;;;1.90;;
57395;SDS011;43222;52.912;6.940;2023-12-20T11:59:36;11.70;;;1.70;;
57395;SDS011;43222;52.912;6.940;2023-12-20T12:02:02;13.20;;;1.98;;
57395;SDS011;43222;52.912;6.940;2023-12-20T12:04:28;13.20;;;1.70;;
57395;SDS011;43222;52.912;6.940;2023-12-20T12:06:54;14.68;;;1.90;;
57395;SDS011;43222;52.912;6.940;2023-12-20T12:09:20;16.65;;;1.92;;
57395;SDS011;43222;52.912;6.940;2023-12-20T12:11:46;14.77;;;2.33;;
57395;SDS011;43222;52.912;6.940;2023-12-20T12:14:13;14.40;;;2.13;;
57395;SDS011;43222;52.912;6.940;2023-12-20T12:16:41;13.07;;;2.53;;
57395;SDS011;43222;52.912;6.940;2023-12-20T12:19:14;14.82;;;1.77;;
57395;SDS011;43222;52.912;6.940;2023-12-20T12:21:45;17.58;;;2.40;;
57395;SDS011;43222;52.912;6.940;2023-12-20T12:24:12;15.75;;;2.63;;
57395;SDS011;43222;52.912;6.940;2023-12-20T12:26:38;14.60;;;2.20;;
57395;SDS011;43222;52.912;6.940;2023-12-20T12:29:07;17.42;;;3.13;;
57395;SDS011;43222;52.912;6.940;2023-12-20T12:31:33;15.45;;;2.35;;
57395;SDS011;43222;52.912;6.940;2023-12-20T12:33:59;15.00;;;2.45;;
57395;SDS011;43222;52.912;6.940;2023-12-20T12:36:25;14.25;;;2.28;;
57395;SDS011;43222;52.912;6.940;2023-12-20T12:38:51;12.90;;;2.20;;
57395;SDS011;43222;52.912;6.940;2023-12-20T12:41:17;15.52;;;2.10;;
57395;SDS011;43222;52.912;6.940;2023-12-20T12:43:43;14.90;;;2.30;;
57395;SDS011;43222;52.912;6.940;2023-12-20T12:46:09;15.77;;;2.08;;
57395;SDS011;43222;52.912;6.940;2023-12-20T12:48:35;15.77;;;2.50;;
57395;SDS011;43222;52.912;6.940;2023-12-20T12:51:01;14.75;;;2.50;;
57395;SDS011;43222;52.912;6.940;2023-12-20T12:53:27;14.35;;;2.17;;
57395;SDS011;43222;52.912;6.940;2023-12-20T12:55:53;19.30;;;3.20;;
57395;SDS011;43222;52.912;6.940;2023-12-20T12:58:20;17.17;;;2.80;;
57395;SDS011;43222;52.912;6.940;2023-12-20T13:00:46;14.63;;;1.90;;
57395;SDS011;43222;52.912;6.940;2023-12-20T13:03:12;16.67;;;2.28;;
57395;SDS011;43222;52.912;6.940;2023-12-20T13:05:38;18.20;;;2.60;;
57395;SDS011;43222;52.912;6.940;2023-12-20T13:08:04;13.77;;;2.17;;
57395;SDS011;43222;52.912;6.940;2023-12-20T13:10:31;16.13;;;2.67;;
57395;SDS011;43222;52.912;6.940;2023-12-20T13:12:57;15.38;;;2.50;;
57395;SDS011;43222;52.912;6.940;2023-12-20T13:15:23;15.75;;;2.10;;
57395;SDS011;43222;52.912;6.940;2023-12-20T13:17:49;20.98;;;2.65;;
57395;SDS011;43222;52.912;6.940;2023-12-20T13:20:15;19.27;;;2.97;;
57395;SDS011;43222;52.912;6.940;2023-12-20T13:22:41;14.65;;;2.20;;
57395;SDS011;43222;52.912;6.940;2023-12-20T13:25:08;19.27;;;2.85;;
57395;SDS011;43222;52.912;6.940;2023-12-20T13:27:34;12.18;;;1.95;;
57395;SDS011;43222;52.912;6.940;2023-12-20T13:30:00;15.40;;;2.45;;
57395;SDS011;43222;52.912;6.940;2023-12-20T13:32:26;12.75;;;1.92;;
57395;SDS011;43222;52.912;6.940;2023-12-20T13:34:52;15.93;;;2.38;;
57395;SDS011;43222;52.912;6.940;2023-12-20T13:37:18;10.80;;;2.10;;
57395;SDS011;43222;52.912;6.940;2023-12-20T13:39:44;13.40;;;1.90;;
57395;SDS011;43222;52.912;6.940;2023-12-20T13:42:10;18.23;;;2.20;;
57395;SDS011;43222;52.912;6.940;2023-12-20T13:44:37;10.88;;;2.10;;
57395;SDS011;43222;52.912;6.940;2023-12-20T13:47:03;13.73;;;2.22;;
57395;SDS011;43222;52.912;6.940;2023-12-20T13:49:29;19.02;;;2.30;;
57395;SDS011;43222;52.912;6.940;2023-12-20T13:51:55;13.18;;;2.35;;
57395;SDS011;43222;52.912;6.940;2023-12-20T13:54:22;15.43;;;2.17;;
57395;SDS011;43222;52.912;6.940;2023-12-20T13:56:48;13.25;;;2.42;;
57395;SDS011;43222;52.912;6.940;2023-12-20T13:59:15;13.38;;;2.00;;
57395;SDS011;43222;52.912;6.940;2023-12-20T14:01:41;14.13;;;1.80;;
57395;SDS011;43222;52.912;6.940;2023-12-20T14:04:07;12.35;;;2.20;;
57395;SDS011;43222;52.912;6.940;2023-12-20T14:06:33;13.25;;;1.77;;
57395;SDS011;43222;52.912;6.940;2023-12-20T14:08:59;9.65;;;1.70;;
57395;SDS011;43222;52.912;6.940;2023-12-20T14:11:26;14.30;;;2.22;;
57395;SDS011;43222;52.912;6.940;2023-12-20T14:13:52;12.50;;;1.75;;
57395;SDS011;43222;52.912;6.940;2023-12-20T14:16:22;11.65;;;1.58;;
57395;SDS011;43222;52.912;6.940;2023-12-20T14:18:48;13.75;;;2.13;;
57395;SDS011;43222;52.912;6.940;2023-12-20T14:21:17;19.23;;;3.00;;
57395;SDS011;43222;52.912;6.940;2023-12-20T14:23:44;12.77;;;2.00;;
57395;SDS011;43222;52.912;6.940;2023-12-20T14:26:11;12.60;;;1.83;;
57395;SDS011;43222;52.912;6.940;2023-12-20T14:28:40;11.45;;;1.65;;
57395;SDS011;43222;52.912;6.940;2023-12-20T14:31:06;10.18;;;1.42;;
57395;SDS011;43222;52.912;6.940;2023-12-20T14:33:33;16.05;;;2.25;;
57395;SDS011;43222;52.912;6.940;2023-12-20T14:35:59;14.45;;;2.58;;
57395;SDS011;43222;52.912;6.940;2023-12-20T14:38:25;15.18;;;3.10;;
57395;SDS011;43222;52.912;6.940;2023-12-20T14:40:52;15.48;;;2.47;;